Time;durP1;ratioP1;P1;durP2;ratioP2;P2;SDS_P1;SDS_P2;PMS_P1;PMS_P2;Temp;Humidity;BMP_temperature;BMP_pressure;BME280_temperature;BME280_humidity;BME280_pressure;Samples;Min_cycle;Max_cycle;Signal;HPM_P1;HPM_P2
2021/09/03 00:00:56;;;;;;;2.65;1.40;;;;;;;7.08;91.97;99579.98;1715317;81;21141;-67
2021/09/03 00:03:28;;;;;;;4.08;1.57;;;;;;;7.06;92.09;99582.19;1728733;82;21741;-67
2021/09/03 00:05:57;;;;;;;9.85;1.55;;;;;;;7.05;92.18;99584.66;1732430;82;21093;-68
2021/09/03 00:08:29;;;;;;;5.05;1.42;;;;;;;7.04;92.23;99581.67;1722222;82;21593;-67
2021/09/03 00:11:01;;;;;;;3.33;1.50;;;;;;;7.00;92.18;99577.09;1739328;81;21034;-67
2021/09/03 00:13:36;;;;;;;8.15;1.37;;;;;;;6.98;92.46;99579.30;1699099;81;21541;-67
2021/09/03 00:16:04;;;;;;;2.90;1.50;;;;;;;6.96;92.59;99580.95;1703862;82;20936;-70
2021/09/03 00:18:42;;;;;;;3.20;1.52;;;;;;;6.93;92.66;99573.38;1726864;82;20868;-67
2021/09/03 00:21:11;;;;;;;2.42;0.98;;;;;;;6.92;92.67;99575.84;1729479;81;21032;-67
2021/09/03 00:23:45;;;;;;;4.95;1.30;;;;;;;6.90;92.77;99573.95;1722133;81;21395;-67
2021/09/03 00:26:19;;;;;;;4.70;1.45;;;;;;;6.86;92.89;99582.45;1702443;81;20845;-68
2021/09/03 00:28:52;;;;;;;4.00;1.30;;;;;;;6.83;93.39;99583.84;1731491;81;21023;-69
2021/09/03 00:31:21;;;;;;;3.50;1.12;;;;;;;6.82;93.37;99582.23;1732731;82;21083;-69
2021/09/03 00:33:55;;;;;;;3.92;1.20;;;;;;;6.80;93.36;99583.62;1738092;81;20953;-67
2021/09/03 00:36:27;;;;;;;2.98;1.40;;;;;;;6.77;93.57;99582.28;1705370;82;20952;-67
2021/09/03 00:38:59;;;;;;;6.97;1.30;;;;;;;6.77;93.64;99578.73;1704560;82;20889;-68
2021/09/03 00:41:33;;;;;;;3.52;1.20;;;;;;;6.74;93.58;99576.03;1721213;82;21040;-68
2021/09/03 00:44:04;;;;;;;2.37;1.17;;;;;;;6.74;93.62;99576.59;1720469;81;21451;-68
2021/09/03 00:46:34;;;;;;;3.98;1.07;;;;;;;6.72;93.62;99571.97;1728783;82;20928;-68
2021/09/03 00:49:09;;;;;;;2.12;1.05;;;;;;;6.70;93.72;99581.00;1726338;82;20940;-68
2021/09/03 00:51:40;;;;;;;3.67;1.67;;;;;;;6.68;93.84;99580.47;1722531;82;21845;-67
2021/09/03 00:54:10;;;;;;;5.83;1.30;;;;;;;6.64;94.02;99572.05;1716132;81;21787;-68
2021/09/03 00:56:42;;;;;;;3.33;1.10;;;;;;;6.62;94.18;99575.63;1739109;81;21594;-68
2021/09/03 00:59:13;;;;;;;7.50;1.20;;;;;;;6.60;94.27;99577.27;1721514;80;21006;-71
2021/09/03 01:01:52;;;;;;;4.72;1.27;;;;;;;6.61;94.35;99573.99;1712486;82;20998;-67
2021/09/03 01:04:19;;;;;;;7.05;1.30;;;;;;;6.60;94.47;99580.00;1717416;82;21890;-66
2021/09/03 01:06:47;;;;;;;4.60;1.00;;;;;;;6.60;94.46;99576.46;1691305;82;20949;-66
2021/09/03 01:09:20;;;;;;;3.62;1.62;;;;;;;6.60;94.58;99582.73;1739991;81;20910;-66
2021/09/03 01:11:53;;;;;;;5.53;2.22;;;;;;;6.58;94.65;99581.39;1733711;81;21551;-66
2021/09/03 01:14:25;;;;;;;8.83;1.50;;;;;;;6.57;94.75;99583.30;1734190;81;20988;-66
2021/09/03 01:16:55;;;;;;;4.75;1.67;;;;;;;6.56;94.84;99590.41;1721058;82;21660;-66
2021/09/03 01:19:25;;;;;;;4.65;1.40;;;;;;;6.55;94.94;99578.69;1714679;82;21589;-66
2021/09/03 01:21:52;;;;;;;3.40;1.60;;;;;;;6.55;94.90;99580.60;1720411;81;20925;-66
2021/09/03 01:24:26;;;;;;;5.65;1.42;;;;;;;6.56;94.98;99580.86;1712299;82;20929;-66
2021/09/03 01:26:59;;;;;;;4.72;1.40;;;;;;;6.55;94.95;99583.33;1722695;82;26471;-66
2021/09/03 01:29:34;;;;;;;2.62;1.35;;;;;;;6.53;94.91;99580.89;1723722;81;21175;-66
2021/09/03 01:32:02;;;;;;;;;;;;;;;6.52;95.10;99573.00;1722856;81;20936;-66
2021/09/03 01:34:40;;;;;;;3.58;1.30;;;;;;;6.52;95.12;99582.54;1689096;82;20449;-66
2021/09/03 01:37:16;;;;;;;2.58;1.30;;;;;;;6.49;95.09;99579.84;1734863;81;20989;-66
2021/09/03 01:39:48;;;;;;;3.22;1.10;;;;;;;6.48;95.09;99577.40;1711603;81;20863;-68
2021/09/03 01:42:28;;;;;;;4.12;1.30;;;;;;;6.46;95.08;99576.33;1701183;82;21514;-67
2021/09/03 01:45:03;;;;;;;3.40;1.35;;;;;;;6.43;95.07;99574.72;1706692;81;20972;-67
2021/09/03 01:47:32;;;;;;;4.42;1.40;;;;;;;6.40;95.29;99576.66;1684332;82;21029;-67
2021/09/03 01:50:03;;;;;;;3.05;1.57;;;;;;;6.39;95.45;99577.76;1700286;81;21077;-67
2021/09/03 01:52:31;;;;;;;3.80;1.40;;;;;;;6.37;95.51;99579.41;1710547;83;21034;-67
2021/09/03 01:55:01;;;;;;;3.90;1.52;;;;;;;6.35;95.68;99578.10;1652407;84;21042;-67
2021/09/03 01:57:35;;;;;;;3.22;1.62;;;;;;;6.32;95.83;99574.03;1696662;82;20888;-67
2021/09/03 02:00:12;;;;;;;2.65;1.20;;;;;;;6.31;96.05;99571.59;1713304;81;21595;-67
2021/09/03 02:02:46;;;;;;;2.67;1.32;;;;;;;6.32;96.18;99573.22;1719000;82;21048;-67
2021/09/03 02:05:13;;;;;;;5.15;1.15;;;;;;;6.33;96.33;99578.94;1722042;81;20985;-67
2021/09/03 02:07:40;;;;;;;2.37;1.07;;;;;;;6.32;96.18;99573.22;1739096;82;21960;-68
2021/09/03 02:10:13;;;;;;;3.87;1.30;;;;;;;6.29;96.17;99571.88;1749001;82;21028;-67
2021/09/03 02:12:46;;;;;;;4.22;1.60;;;;;;;6.29;96.32;99574.61;1721368;82;21616;-68
2021/09/03 02:15:17;;;;;;;3.50;1.30;;;;;;;6.28;96.45;99572.98;1733507;81;21017;-68
2021/09/03 02:17:47;;;;;;;8.15;1.22;;;;;;;6.25;96.39;99569.46;1738315;81;20890;-68
2021/09/03 02:20:18;;;;;;;3.92;1.20;;;;;;;6.23;96.53;99573.02;1739952;82;20945;-68
2021/09/03 02:22:46;;;;;;;3.77;1.22;;;;;;;6.21;96.63;99573.31;1732593;81;21449;-67
2021/09/03 02:25:28;;;;;;;3.10;1.45;;;;;;;6.21;96.68;99575.22;1738496;82;20924;-67
2021/09/03 02:27:53;;;;;;;5.28;1.77;;;;;;;6.21;96.75;99578.77;1685639;81;21623;-68
2021/09/03 02:30:24;;;;;;;4.78;1.50;;;;;;;6.21;96.97;99578.77;1730497;81;20903;-67
2021/09/03 02:32:58;;;;;;;5.12;1.30;;;;;;;6.22;97.10;99582.30;1725477;82;21170;-66
2021/09/03 02:35:26;;;;;;;2.70;1.30;;;;;;;6.22;97.11;99583.66;1736554;81;21060;-66
2021/09/03 02:37:57;;;;;;;6.37;1.67;;;;;;;6.21;97.24;99584.77;1718665;81;21046;-67
2021/09/03 02:40:25;;;;;;;3.37;1.55;;;;;;;6.20;97.20;99574.41;1722660;81;21084;-66
2021/09/03 02:43:05;;;;;;;2.92;1.37;;;;;;;6.20;97.26;99572.23;1729299;81;21555;-66
2021/09/03 02:45:34;;;;;;;2.77;1.22;;;;;;;6.21;97.48;99568.41;1729815;81;21175;-66
2021/09/03 02:48:04;;;;;;;3.05;1.27;;;;;;;6.21;97.66;99567.05;1724729;82;20953;-66
2021/09/03 02:50:40;;;;;;;4.65;1.40;;;;;;;6.23;97.73;99570.30;1721029;82;20848;-66
2021/09/03 02:53:13;;;;;;;3.30;1.55;;;;;;;6.23;97.61;99565.66;1698626;82;21034;-69
2021/09/03 02:55:44;;;;;;;2.40;1.30;;;;;;;6.23;97.61;99566.20;1716170;81;21502;-68
2021/09/03 02:58:14;;;;;;;3.62;1.47;;;;;;;6.23;97.56;99577.11;1725432;81;21540;-68
2021/09/03 03:00:47;;;;;;;3.57;1.60;;;;;;;6.20;97.62;99573.05;1732958;82;20954;-68
2021/09/03 03:03:17;;;;;;;5.05;1.40;;;;;;;6.20;97.80;99571.69;1725522;81;20898;-65
2021/09/03 03:05:49;;;;;;;5.85;1.62;;;;;;;6.21;97.86;99574.67;1734197;82;20870;-66
2021/09/03 03:08:26;;;;;;;6.92;1.37;;;;;;;6.21;97.82;99570.58;1703982;83;20967;-66
2021/09/03 03:11:00;;;;;;;3.40;1.47;;;;;;;6.21;97.93;99579.31;1734255;81;21192;-66
2021/09/03 03:13:30;;;;;;;2.50;1.00;;;;;;;6.20;97.98;99573.05;1714985;81;20980;-67
2021/09/03 03:16:04;;;;;;;2.75;1.12;;;;;;;6.19;98.08;99575.51;1718201;82;21051;-67
2021/09/03 03:18:34;;;;;;;7.05;1.45;;;;;;;6.18;98.02;99571.16;1728946;82;20979;-68
2021/09/03 03:21:07;;;;;;;2.20;1.40;;;;;;;6.18;98.01;99580.70;1727597;82;20939;-69
2021/09/03 03:23:37;;;;;;;5.30;0.93;;;;;;;6.17;98.05;99574.98;1709250;82;20999;-66
2021/09/03 03:26:13;;;;;;;2.20;1.20;;;;;;;6.16;98.07;99580.72;1718872;82;21022;-67
2021/09/03 03:28:43;;;;;;;4.70;1.37;;;;;;;6.15;98.32;99580.45;1694792;82;21569;-67
2021/09/03 03:31:14;;;;;;;6.10;1.60;;;;;;;6.12;98.41;99581.02;1677333;83;21085;-67
2021/09/03 03:33:45;;;;;;;3.05;1.30;;;;;;;6.11;98.50;99580.76;1685908;83;20998;-68
2021/09/03 03:36:23;;;;;;;8.63;1.67;;;;;;;6.11;98.53;99579.39;1686400;83;20951;-65
2021/09/03 03:38:53;;;;;;;2.37;1.47;;;;;;;6.09;98.58;99576.95;1694316;83;20938;-68
2021/09/03 03:41:28;;;;;;;4.28;1.40;;;;;;;6.09;98.81;99584.31;1694451;83;21009;-67
2021/09/03 03:44:01;;;;;;;3.75;1.17;;;;;;;6.10;99.11;99581.86;1709403;83;20913;-68
2021/09/03 03:46:30;;;;;;;9.30;1.10;;;;;;;6.12;99.21;99587.84;1704426;83;21433;-67
2021/09/03 03:49:04;;;;;;;6.08;1.35;;;;;;;6.13;99.29;99582.65;1671780;84;20946;-69
2021/09/03 03:51:33;;;;;;;2.08;1.40;;;;;;;6.15;99.39;99591.36;1695829;83;21528;-68
2021/09/03 03:54:06;;;;;;;3.52;1.20;;;;;;;6.16;99.44;99587.53;1711128;83;20988;-70
2021/09/03 03:56:45;;;;;;;3.05;1.20;;;;;;;6.17;99.49;99587.24;1710874;82;20929;-68
2021/09/03 03:59:15;;;;;;;3.95;1.25;;;;;;;6.21;99.53;99580.67;1722640;81;20925;-70
2021/09/03 04:01:46;;;;;;;4.95;1.02;;;;;;;6.23;99.77;99586.66;1724995;81;21163;-69
2021/09/03 04:04:15;;;;;;;4.45;1.30;;;;;;;6.28;99.89;99583.88;1721390;81;20983;-69
2021/09/03 04:06:46;;;;;;;6.80;1.77;;;;;;;6.33;99.81;99585.20;1729344;81;20930;-69
2021/09/03 04:09:18;;;;;;;4.35;1.85;;;;;;;6.37;99.83;99590.31;1726975;81;20934;-69
2021/09/03 04:11:47;;;;;;;3.45;1.30;;;;;;;6.43;99.81;99590.53;1728185;81;20999;-67
2021/09/03 04:14:20;;;;;;;2.47;1.40;;;;;;;6.48;99.81;99589.67;1722729;81;21185;-68
2021/09/03 04:16:51;;;;;;;3.37;1.32;;;;;;;6.52;99.63;99591.53;1729376;82;20988;-68
2021/09/03 04:19:24;;;;;;;4.05;1.10;;;;;;;6.57;99.72;99596.13;1723440;82;21510;-67
2021/09/03 04:21:57;;;;;;;3.92;1.20;;;;;;;6.63;99.73;99585.43;1724819;81;21048;-72
2021/09/03 04:24:31;;;;;;;3.85;1.25;;;;;;;6.68;99.52;99586.73;1712288;81;20924;-71
2021/09/03 04:27:03;;;;;;;5.15;1.60;;;;;;;6.74;99.31;99590.23;1698243;82;20984;-68
2021/09/03 04:29:36;;;;;;;2.70;1.10;;;;;;;6.78;99.12;99588.00;1669898;83;21479;-69
2021/09/03 04:32:09;;;;;;;;;;;;;;;6.85;99.10;99584.92;1684358;83;21019;-69
2021/09/03 04:34:35;;;;;;;4.40;0.90;;;;;;;6.90;99.09;99591.14;1699619;82;20096;-68
2021/09/03 04:37:06;;;;;;;3.55;1.00;;;;;;;6.97;99.03;99581.20;1679577;83;21038;-69
2021/09/03 04:39:36;;;;;;;1.98;1.07;;;;;;;7.05;98.59;99583.84;1657157;83;20945;-69
2021/09/03 04:42:05;;;;;;;2.52;1.60;;;;;;;7.12;97.93;99581.58;1690656;83;21004;-68
2021/09/03 04:44:38;;;;;;;6.62;1.50;;;;;;;7.18;97.87;99583.95;1737031;81;21011;-68
2021/09/03 04:47:13;;;;;;;1.67;1.12;;;;;;;7.25;97.08;99584.41;1737013;81;20986;-68
2021/09/03 04:49:49;;;;;;;4.45;1.20;;;;;;;7.35;96.92;99585.39;1753966;81;21094;-68
2021/09/03 04:52:15;;;;;;;4.58;1.10;;;;;;;7.45;96.94;99578.42;1738603;80;21819;-68
2021/09/03 04:54:50;;;;;;;6.28;1.30;;;;;;;7.52;96.44;99579.66;1718803;80;21302;-67
2021/09/03 04:57:20;;;;;;;3.90;1.30;;;;;;;7.60;95.87;99580.91;1695794;83;21040;-67
2021/09/03 04:59:53;;;;;;;3.37;1.50;;;;;;;7.68;95.25;99584.34;1665390;84;21091;-67
2021/09/03 05:02:27;;;;;;;3.40;1.10;;;;;;;7.76;95.15;99580.95;1669851;83;21008;-67
2021/09/03 05:05:05;;;;;;;1.20;0.80;;;;;;;7.84;94.90;99583.02;1707997;81;21211;-69
2021/09/03 05:07:41;;;;;;;4.80;1.57;;;;;;;7.94;94.48;99584.78;1704054;82;21074;-67
2021/09/03 05:10:14;;;;;;;4.97;1.43;;;;;;;8.00;93.59;99578.12;1720639;81;21629;-69
2021/09/03 05:12:43;;;;;;;3.87;1.30;;;;;;;8.17;93.21;99580.29;1728023;81;21469;-67
2021/09/03 05:15:17;;;;;;;;;;;;;;;8.17;93.21;99580.29;1719017;81;20991;-68
2021/09/03 05:17:50;;;;;;;3.50;1.77;;;;;;;8.29;92.47;99577.90;1743753;80;20661;-68
2021/09/03 05:20:23;;;;;;;2.95;1.40;;;;;;;8.39;91.57;99580.49;1736773;81;21027;-65
2021/09/03 05:22:51;;;;;;;;;;;;;;;8.47;91.05;99582.53;1751785;82;21000;-68
2021/09/03 05:25:18;;;;;;;3.00;1.40;;;;;;;8.59;91.76;99584.23;1725212;81;20166;-68
2021/09/03 05:27:45;;;;;;;3.30;1.20;;;;;;;8.72;90.97;99577.13;1716692;82;20930;-68
2021/09/03 05:30:14;;;;;;;5.50;1.60;;;;;;;8.84;91.06;99578.81;1723215;82;20989;-69
2021/09/03 05:32:42;;;;;;;3.45;1.15;;;;;;;8.97;90.02;99575.83;1721294;82;20973;-68
2021/09/03 05:35:09;;;;;;;3.85;1.50;;;;;;;9.09;90.04;99574.77;1732393;82;20933;-69
2021/09/03 05:37:36;;;;;;;7.55;1.35;;;;;;;9.22;88.55;99575.88;1746504;81;20954;-67
2021/09/03 05:40:06;;;;;;;5.60;1.40;;;;;;;9.31;88.07;99573.20;1713864;82;21072;-67
2021/09/03 05:42:32;;;;;;;4.40;1.10;;;;;;;9.41;87.61;99572.98;1697632;82;21114;-67
2021/09/03 05:44:59;;;;;;;4.47;1.00;;;;;;;9.52;86.24;99575.75;1735725;80;20889;-67
2021/09/03 05:47:27;;;;;;;4.35;1.50;;;;;;;9.60;86.18;99572.28;1722653;81;21123;-66
2021/09/03 05:49:56;;;;;;;1.92;0.98;;;;;;;9.72;87.01;99567.08;1717690;81;20944;-66
2021/09/03 05:52:22;;;;;;;2.37;1.45;;;;;;;9.86;86.61;99566.44;1714318;82;20958;-66
2021/09/03 05:54:49;;;;;;;4.17;1.40;;;;;;;10.00;85.30;99567.76;1737569;81;21690;-67
2021/09/03 05:57:16;;;;;;;4.00;1.15;;;;;;;10.10;83.82;99563.95;1742924;81;21709;-67
2021/09/03 05:59:43;;;;;;;3.77;1.05;;;;;;;10.16;83.44;99567.64;1718775;81;21052;-67
2021/09/03 06:02:10;;;;;;;4.15;1.15;;;;;;;10.24;83.68;99563.36;1712631;83;20948;-67
2021/09/03 06:04:37;;;;;;;2.85;1.00;;;;;;;10.35;83.60;99555.12;1714606;83;21050;-67
2021/09/03 06:07:04;;;;;;;2.08;0.90;;;;;;;10.47;82.69;99562.75;1710245;81;21142;-69
2021/09/03 06:09:31;;;;;;;3.98;1.32;;;;;;;10.57;81.39;99553.69;1698760;82;21067;-69
2021/09/03 06:11:58;;;;;;;4.78;1.32;;;;;;;10.68;81.04;99559.72;1708433;81;21028;-68
2021/09/03 06:14:25;;;;;;;4.50;0.98;;;;;;;10.81;81.43;99556.63;1716144;81;21528;-68
2021/09/03 06:16:52;;;;;;;7.03;1.72;;;;;;;10.96;80.68;99556.77;1703383;81;22117;-68
2021/09/03 06:19:20;;;;;;;2.67;1.27;;;;;;;11.11;80.28;99561.23;1733549;81;21225;-67
2021/09/03 06:21:48;;;;;;;2.77;1.72;;;;;;;11.26;79.54;99566.85;1714127;80;21523;-68
2021/09/03 06:24:30;;;;;;;3.85;1.17;;;;;;;11.39;79.62;99565.10;1737295;81;21027;-68
2021/09/03 06:26:59;;;;;;;2.10;1.27;;;;;;;11.54;79.37;99560.52;1739023;81;21524;-68
2021/09/03 06:29:39;;;;;;;6.17;1.40;;;;;;;11.69;77.68;99554.52;1718938;81;21410;-69
2021/09/03 06:32:17;;;;;;;2.42;0.93;;;;;;;11.80;76.72;99558.61;1730485;81;21155;-69
2021/09/03 06:34:48;;;;;;;3.40;1.25;;;;;;;11.89;76.35;99554.48;1745716;80;21555;-69
2021/09/03 06:37:16;;;;;;;3.52;1.90;;;;;;;12.00;74.58;99557.72;1738034;81;21117;-69
2021/09/03 06:39:43;;;;;;;3.80;1.27;;;;;;;12.11;75.12;99554.88;1727745;81;21512;-69
2021/09/03 06:42:10;;;;;;;3.25;1.00;;;;;;;12.27;75.61;99558.70;1737014;81;21087;-68
2021/09/03 06:44:37;;;;;;;2.98;1.40;;;;;;;12.43;73.32;99559.00;1719246;82;21047;-68
2021/09/03 06:47:05;;;;;;;3.17;1.20;;;;;;;12.57;72.57;99563.75;1705317;81;20861;-69
2021/09/03 06:49:33;;;;;;;1.87;1.22;;;;;;;12.70;72.33;99559.17;1723630;82;21024;-69
2021/09/03 06:52:03;;;;;;;3.15;1.32;;;;;;;12.80;70.99;99556.03;1708113;82;21052;-68
2021/09/03 06:54:31;;;;;;;2.95;1.20;;;;;;;12.92;70.84;99559.47;1744911;81;20999;-68
2021/09/03 06:57:00;;;;;;;3.05;0.98;;;;;;;13.03;70.34;99557.39;1722418;82;21436;-67
2021/09/03 06:59:27;;;;;;;5.47;1.42;;;;;;;13.18;70.65;99555.48;1741355;81;20852;-67
2021/09/03 07:01:55;;;;;;;2.95;1.02;;;;;;;13.36;70.23;99550.65;1731878;81;20967;-67
2021/09/03 07:04:22;;;;;;;1.98;1.35;;;;;;;13.49;67.81;99548.22;1733064;81;20969;-69
2021/09/03 07:06:50;;;;;;;3.33;1.47;;;;;;;13.56;65.55;99553.20;1724531;82;20893;-67
2021/09/03 07:09:19;;;;;;;1.40;1.20;;;;;;;13.60;66.29;99547.25;1726344;82;23136;-68
2021/09/03 07:11:47;;;;;;;2.17;0.98;;;;;;;13.72;67.15;99557.55;1731079;81;21471;-67
2021/09/03 07:14:13;;;;;;;2.35;1.37;;;;;;;13.86;66.07;99551.97;1732950;82;20957;-67
2021/09/03 07:16:41;;;;;;;3.92;1.00;;;;;;;14.00;65.61;99541.23;1726583;82;21080;-67
2021/09/03 07:19:08;;;;;;;7.62;1.20;;;;;;;14.09;64.89;99544.14;1735322;81;20894;-67
2021/09/03 07:21:35;;;;;;;4.37;1.00;;;;;;;14.17;64.00;99543.83;1720432;82;21152;-67
2021/09/03 07:24:03;;;;;;;2.75;1.00;;;;;;;14.23;64.85;99547.99;1719401;82;21538;-67
2021/09/03 07:26:32;;;;;;;4.60;1.07;;;;;;;14.37;64.24;99548.50;1721088;81;20989;-67
2021/09/03 07:28:59;;;;;;;2.55;1.10;;;;;;;14.51;63.80;99549.00;1733902;81;21044;-68
2021/09/03 07:31:26;;;;;;;4.03;0.98;;;;;;;14.70;62.63;99542.14;1741477;82;21016;-67
2021/09/03 07:33:53;;;;;;;8.58;1.00;;;;;;;14.95;59.28;99539.64;1745189;81;21071;-68
2021/09/03 07:36:19;;;;;;;0.88;0.80;;;;;;;15.30;57.63;99548.25;1732243;81;21024;-70
2021/09/03 07:38:46;;;;;;;2.35;1.30;;;;;;;15.69;57.12;99538.97;1740364;82;21055;-68
2021/09/03 07:41:13;;;;;;;1.80;0.80;;;;;;;16.09;55.38;99534.80;1726406;81;21009;-67
2021/09/03 07:43:41;;;;;;;3.40;1.07;;;;;;;16.43;53.28;99541.08;1731036;81;21071;-68
2021/09/03 07:46:08;;;;;;;6.55;0.95;;;;;;;16.68;52.83;99540.97;1732308;82;21157;-68
2021/09/03 07:48:35;;;;;;;2.35;1.00;;;;;;;16.93;52.43;99535.45;1730358;81;21551;-70
2021/09/03 07:51:02;;;;;;;3.45;0.80;;;;;;;17.25;52.55;99536.81;1730130;81;20999;-69
2021/09/03 07:53:30;;;;;;;2.67;0.78;;;;;;;17.62;52.30;99532.50;1732785;81;21031;-71
2021/09/03 07:55:59;;;;;;;4.40;1.17;;;;;;;17.90;50.88;99518.45;1732216;82;21020;-69
2021/09/03 07:58:26;;;;;;;6.05;1.30;;;;;;;17.97;51.12;99528.87;1726315;81;21553;-69
2021/09/03 08:00:52;;;;;;;5.20;1.35;;;;;;;18.10;48.92;99521.42;1728467;82;21493;-68
2021/09/03 08:03:19;;;;;;;4.10;1.35;;;;;;;17.83;47.88;99521.67;1734248;81;21626;-68
2021/09/03 08:05:46;;;;;;;3.98;1.02;;;;;;;17.55;49.79;99526.78;1720858;82;21063;-71
2021/09/03 08:08:13;;;;;;;7.75;1.60;;;;;;;17.27;50.70;99521.42;1737555;81;21515;-69
2021/09/03 08:10:41;;;;;;;6.47;1.17;;;;;;;17.29;52.47;99525.22;1733747;82;21558;-70
2021/09/03 08:13:09;;;;;;;1.35;0.75;;;;;;;17.46;52.15;99523.41;1735150;81;21490;-71
2021/09/03 08:15:36;;;;;;;3.70;1.05;;;;;;;17.62;49.06;99510.29;1737985;81;21043;-70
2021/09/03 08:18:03;;;;;;;3.40;0.80;;;;;;;17.58;48.40;99510.80;1729553;81;21048;-69
2021/09/03 08:20:29;;;;;;;4.90;1.25;;;;;;;17.72;49.11;99499.23;1731993;82;21063;-69
2021/09/03 08:23:00;;;;;;;3.83;1.25;;;;;;;17.94;48.87;99498.47;1729045;82;21571;-70
2021/09/03 08:25:29;;;;;;;7.97;1.35;;;;;;;18.01;48.59;99494.45;1736711;81;20986;-70
2021/09/03 08:27:56;;;;;;;3.05;0.85;;;;;;;17.82;47.41;99501.42;1743610;81;21008;-70
2021/09/03 08:30:23;;;;;;;4.37;0.78;;;;;;;17.57;46.28;99491.73;1753326;81;21554;-69
2021/09/03 08:32:49;;;;;;;1.98;1.02;;;;;;;17.62;48.73;99488.08;1743288;82;21048;-68
2021/09/03 08:35:16;;;;;;;4.10;0.65;;;;;;;18.00;49.31;99490.66;1710085;82;21551;-68
2021/09/03 08:37:43;;;;;;;6.65;2.45;;;;;;;18.18;47.62;99486.25;1712414;81;21108;-68
2021/09/03 08:40:11;;;;;;;6.85;2.33;;;;;;;18.18;45.90;99489.61;1715498;81;20992;-68
2021/09/03 08:42:38;;;;;;;5.40;0.93;;;;;;;17.98;46.54;99481.88;1734470;81;21017;-68
2021/09/03 08:45:07;;;;;;;4.10;0.60;;;;;;;17.80;46.81;99482.94;1744833;80;21623;-69
2021/09/03 08:47:35;;;;;;;1.40;0.88;;;;;;;17.63;47.22;99483.34;1745670;81;21136;-69
2021/09/03 08:50:01;;;;;;;1.98;1.00;;;;;;;17.47;47.07;99473.09;1744080;81;21023;-69
2021/09/03 08:52:27;;;;;;;3.47;0.90;;;;;;;17.43;48.46;99465.86;1735875;81;21675;-70
2021/09/03 08:54:56;;;;;;;2.75;1.10;;;;;;;17.58;48.66;99462.22;1662306;84;21075;-71
2021/09/03 08:57:24;;;;;;;4.03;0.75;;;;;;;17.89;47.32;99472.41;1670425;83;21001;-69
2021/09/03 08:59:51;;;;;;;2.80;1.20;;;;;;;18.17;47.48;99467.17;1663737;84;21143;-69
2021/09/03 09:02:20;;;;;;;6.37;1.10;;;;;;;18.53;47.45;99469.98;1696664;83;21019;-69
2021/09/03 09:04:53;;;;;;;4.13;1.00;;;;;;;19.07;48.82;99474.67;1687891;84;21082;-72
2021/09/03 09:07:22;;;;;;;;;;;;;;;19.48;46.23;99463.73;1693005;83;22043;-71
2021/09/03 09:09:48;;;;;;;3.37;0.95;;;;;;;19.37;44.94;99460.80;1652598;84;20184;-72
2021/09/03 09:12:19;;;;;;;5.85;1.10;;;;;;;18.93;45.04;99474.47;1725864;80;21339;-70
2021/09/03 09:15:09;;;;;;;2.05;1.02;;;;;;;18.56;46.33;99469.24;1743764;81;21067;-69
2021/09/03 09:17:42;;;;;;;4.63;1.57;;;;;;;18.52;46.21;99458.65;1744456;81;21547;-68
2021/09/03 09:20:16;;;;;;;3.73;1.43;;;;;;;18.49;46.04;99461.58;1749602;81;21485;-69
2021/09/03 09:23:02;;;;;;;4.30;1.50;;;;;;;18.30;46.48;99455.52;1691701;82;20981;-68
2021/09/03 09:25:35;;;;;;;1.70;1.02;;;;;;;17.98;46.99;99449.36;1751133;81;21148;-69
2021/09/03 09:28:21;;;;;;;1.85;0.80;;;;;;;17.55;48.25;99451.84;1726971;81;21055;-69
2021/09/03 09:30:49;;;;;;;1.82;1.10;;;;;;;17.21;49.08;99457.67;1744085;81;21107;-69
2021/09/03 09:33:22;;;;;;;8.88;1.32;;;;;;;16.84;50.01;99462.16;1736586;81;20978;-68
2021/09/03 09:35:52;;;;;;;4.87;1.07;;;;;;;16.64;50.09;99465.20;1713399;82;21009;-68
2021/09/03 09:38:21;;;;;;;6.05;1.10;;;;;;;16.73;50.14;99456.97;1699035;82;21225;-70
2021/09/03 09:40:59;;;;;;;4.10;1.25;;;;;;;16.87;50.36;99449.55;1697578;84;21192;-67
2021/09/03 09:43:30;;;;;;;4.40;2.80;;;;;;;16.88;50.37;99449.77;1741803;82;20981;-67
2021/09/03 09:46:21;;;;;;;6.30;1.40;;;;;;;16.85;50.08;99446.33;1734133;81;21057;-67
2021/09/03 09:48:56;;;;;;;3.35;1.30;;;;;;;16.83;50.51;99448.08;1757418;81;20851;-73
2021/09/03 09:51:32;;;;;;;2.05;1.00;;;;;;;16.86;51.32;99450.71;1750477;80;21120;-72
2021/09/03 09:54:14;;;;;;;3.17;1.02;;;;;;;16.88;50.27;99442.03;1762369;81;20937;-72
2021/09/03 09:56:51;;;;;;;4.08;1.15;;;;;;;16.94;51.58;99448.91;1755260;81;20980;-71
2021/09/03 09:59:19;;;;;;;3.62;1.22;;;;;;;16.95;50.32;99440.23;1762859;80;20936;-72
2021/09/03 10:01:49;;;;;;;1.85;1.00;;;;;;;17.34;51.36;99433.35;1752132;80;21003;-74
2021/09/03 10:04:19;;;;;;;2.58;1.35;;;;;;;17.79;49.29;99432.16;1740070;81;21568;-68
2021/09/03 10:06:49;;;;;;;6.55;1.75;;;;;;;18.18;46.93;99423.73;1763740;81;20947;-70
2021/09/03 10:09:20;;;;;;;2.60;1.45;;;;;;;18.65;49.09;99423.95;1749539;81;21571;-72
2021/09/03 10:11:53;;;;;;;3.95;1.60;;;;;;;19.27;45.97;99422.48;1751821;81;21433;-72
2021/09/03 10:14:27;;;;;;;3.75;0.95;;;;;;;19.61;43.68;99415.02;1736874;82;21020;-71
2021/09/03 10:16:55;;;;;;;8.63;1.70;;;;;;;19.99;42.72;99433.33;1734221;82;21186;-72
2021/09/03 10:19:40;;;;;;;4.72;1.32;;;;;;;19.90;41.21;99420.30;1729284;81;20969;-71
2021/09/03 10:22:12;;;;;;;2.37;1.35;;;;;;;19.54;42.89;99421.88;1713388;82;21582;-71
2021/09/03 10:24:42;;;;;;;3.92;1.00;;;;;;;19.17;43.74;99419.55;1720696;81;20950;-72
2021/09/03 10:27:08;;;;;;;5.50;1.42;;;;;;;19.13;45.64;99418.91;1733113;81;20949;-72
2021/09/03 10:29:46;;;;;;;1.98;1.20;;;;;;;19.52;44.87;99420.06;1725160;81;22128;-72
2021/09/03 10:32:21;;;;;;;2.67;1.17;;;;;;;19.63;43.59;99414.04;1727813;81;20895;-73
2021/09/03 10:34:54;;;;;;;4.42;1.20;;;;;;;19.57;42.85;99415.55;1736532;81;21407;-73
2021/09/03 10:37:28;;;;;;;6.70;1.47;;;;;;;19.58;44.64;99409.40;1722607;81;20991;-72
2021/09/03 10:39:59;;;;;;;8.85;1.75;;;;;;;19.78;45.01;99414.39;1730678;81;21464;-69
2021/09/03 10:42:45;;;;;;;8.35;2.62;;;;;;;19.92;43.99;99412.95;1728992;81;21137;-69
2021/09/03 10:45:34;;;;;;;6.58;2.10;;;;;;;19.83;43.14;99404.89;1738809;82;21493;-69
2021/09/03 10:48:07;;;;;;;2.83;1.40;;;;;;;19.60;44.03;99402.86;1727228;81;21565;-69
2021/09/03 10:50:44;;;;;;;12.82;3.22;;;;;;;19.33;44.67;99406.27;1739213;82;21468;-70
2021/09/03 10:53:16;;;;;;;5.50;1.90;;;;;;;19.26;44.62;99396.42;1719545;81;21018;-67
2021/09/03 10:56:17;;;;;;;7.72;1.67;;;;;;;19.42;45.51;99402.61;1725468;82;21518;-67
2021/09/03 10:58:55;;;;;;;4.83;1.52;;;;;;;19.71;43.94;99397.59;1725131;81;20989;-68
2021/09/03 11:01:26;;;;;;;5.15;1.70;;;;;;;20.06;44.88;99393.60;1734848;82;21049;-69
2021/09/03 11:04:14;;;;;;;6.70;1.62;;;;;;;20.07;43.12;99385.45;1734955;82;21628;-72
2021/09/03 11:06:40;;;;;;;6.78;1.72;;;;;;;19.91;43.44;99377.92;1736030;82;20945;-71
2021/09/03 11:09:21;;;;;;;5.67;1.30;;;;;;;19.83;43.78;99374.84;1725268;81;21789;-71
2021/09/03 11:11:51;;;;;;;5.47;1.22;;;;;;;19.69;43.04;99371.31;1747639;81;20929;-72
2021/09/03 11:14:22;;;;;;;2.90;1.42;;;;;;;19.47;43.15;99363.30;1734386;81;21106;-71
2021/09/03 11:16:58;;;;;;;3.60;1.50;;;;;;;19.51;43.84;99364.17;1740205;81;20968;-72
2021/09/03 11:19:33;;;;;;;3.72;1.42;;;;;;;19.83;43.22;99352.56;1728186;82;20897;-71
2021/09/03 11:22:11;;;;;;;5.50;1.40;;;;;;;20.40;44.02;99352.50;1733079;81;21812;-72
2021/09/03 11:24:56;;;;;;;9.68;1.75;;;;;;;20.95;42.15;99357.45;1724271;81;21429;-71
2021/09/03 11:27:29;;;;;;;4.55;1.52;;;;;;;21.09;40.30;99352.55;1723241;82;20981;-71
2021/09/03 11:29:58;;;;;;;1.92;1.20;;;;;;;21.00;40.92;99356.28;1739195;81;21449;-71
2021/09/03 11:32:38;;;;;;;1.57;1.07;;;;;;;21.19;40.20;99336.45;1729327;81;20898;-71
2021/09/03 11:35:12;;;;;;;6.62;1.65;;;;;;;21.54;40.17;99337.19;1731708;82;21171;-73
2021/09/03 11:37:48;;;;;;;3.55;1.57;;;;;;;21.78;39.31;99336.26;1734830;82;20951;-71
2021/09/03 11:40:30;;;;;;;6.90;1.50;;;;;;;21.83;38.75;99333.08;1715771;81;21445;-72
2021/09/03 11:43:03;;;;;;;4.50;1.35;;;;;;;21.92;38.74;99323.71;1699529;83;20907;-72
2021/09/03 11:45:34;;;;;;;4.20;1.55;;;;;;;22.14;39.52;99322.54;1723802;82;21545;-68
2021/09/03 11:48:08;;;;;;;4.00;1.70;;;;;;;22.27;39.12;99323.74;1736221;81;22370;-67
2021/09/03 11:50:39;;;;;;;3.17;1.65;;;;;;;22.47;37.80;99321.94;1716633;82;21019;-66
2021/09/03 11:53:08;;;;;;;3.10;1.47;;;;;;;22.52;36.51;99325.73;1732813;81;21004;-68
2021/09/03 11:55:40;;;;;;;4.05;1.60;;;;;;;22.34;38.00;99320.95;1725473;82;20987;-67
2021/09/03 11:58:10;;;;;;;14.15;2.58;;;;;;;22.19;38.47;99315.16;1726530;81;21661;-67